createdAt,value
2018-05-25T00:00:50.304Z,101746.89
2018-05-25T00:03:19.525Z,101751.39
2018-05-25T00:05:48.892Z,101750.13
2018-05-25T00:08:18.109Z,101749.52
2018-05-25T00:10:47.449Z,101750.31
2018-05-25T00:13:16.635Z,101753.42
2018-05-25T00:15:45.747Z,101762.37
2018-05-25T00:18:15.035Z,101760.52
2018-05-25T00:20:44.485Z,101754.11
2018-05-25T00:23:13.720Z,101755.11
2018-05-25T00:25:42.939Z,101758.58
2018-05-25T00:28:14.945Z,101758.82
2018-05-25T00:30:44.336Z,101762.37
2018-05-25T00:33:13.490Z,101760.42
2018-05-25T00:35:42.949Z,101764.12
2018-05-25T00:38:12.999Z,101764.95
2018-05-25T00:40:42.262Z,101760.86
2018-05-25T00:43:11.547Z,101761.88
2018-05-25T00:45:40.937Z,101755.78
2018-05-25T00:48:10.116Z,101754.11
2018-05-25T00:50:39.525Z,101760.08
2018-05-25T00:53:08.916Z,101765.70
2018-05-25T00:55:41.358Z,101758.17
2018-05-25T00:58:10.600Z,101762.20
2018-05-25T01:00:39.922Z,101760.28
2018-05-25T01:03:09.201Z,101771.76
2018-05-25T01:05:38.483Z,101763.80
2018-05-25T01:08:07.480Z,101766.52
2018-05-25T01:10:36.696Z,101764.23
2018-05-25T01:13:06.074Z,101762.04
2018-05-25T01:15:35.301Z,101767.59
2018-05-25T01:18:04.588Z,101768.38
2018-05-25T01:20:33.826Z,101771.77
2018-05-25T01:23:03.077Z,101766.45
2018-05-25T01:25:32.510Z,101764.08
2018-05-25T01:28:01.681Z,101761.09
2018-05-25T01:30:31.004Z,101762.30
2018-05-25T01:33:00.197Z,101773.89
2018-05-25T01:35:29.515Z,101764.33
2018-05-25T01:37:58.562Z,101753.92
2018-05-25T01:40:27.889Z,101759.98
2018-05-25T01:42:57.176Z,101761.03
2018-05-25T01:45:26.281Z,101755.20
2018-05-25T01:47:55.581Z,101757.44
2018-05-25T01:50:24.906Z,101762.43
2018-05-25T01:52:53.963Z,101761.95
2018-05-25T01:55:23.294Z,101764.02
2018-05-25T01:57:52.555Z,101766.97
2018-05-25T02:00:21.685Z,101772.86
2018-05-25T02:02:50.851Z,101768.09
2018-05-25T02:05:20.031Z,101767.36
2018-05-25T02:07:49.344Z,101761.95
2018-05-25T02:10:19.027Z,101763.69
2018-05-25T02:12:48.243Z,101760.02
2018-05-25T02:15:17.481Z,101766.23
2018-05-25T02:17:46.753Z,101770.13
2018-05-25T02:20:15.991Z,101770.88
2018-05-25T02:22:45.235Z,101761.21
2018-05-25T02:25:14.415Z,101757.31
2018-05-25T02:27:43.732Z,101755.26
2018-05-25T02:30:13.073Z,101753.01
2018-05-25T02:32:42.144Z,101752.45
2018-05-25T02:35:11.394Z,101749.19
2018-05-25T02:37:40.737Z,101745.33
2018-05-25T02:40:10.084Z,101751.80
2018-05-25T02:42:39.117Z,101752.32
2018-05-25T02:45:08.406Z,101751.50
2018-05-25T02:47:37.753Z,101755.09
2018-05-25T02:50:07.019Z,101752.32
2018-05-25T02:52:36.328Z,101753.31
2018-05-25T02:55:05.677Z,101757.91
2018-05-25T02:57:34.756Z,101750.89
2018-05-25T03:00:04.103Z,101747.86
2018-05-25T03:02:33.565Z,101745.80
2018-05-25T03:05:02.619Z,101754.89
2018-05-25T03:07:31.973Z,101751.11
2018-05-25T03:10:01.229Z,101752.74
2018-05-25T03:12:30.579Z,101750.12
2018-05-25T03:14:59.831Z,101749.57
2018-05-25T03:17:29.195Z,101743.31
2018-05-25T03:19:58.443Z,101735.37
2018-05-25T03:22:27.799Z,101743.66
2018-05-25T03:24:57.015Z,101749.34
2018-05-25T03:27:26.770Z,101738.37
2018-05-25T03:29:55.877Z,101742.53
2018-05-25T03:32:25.181Z,101737.09
2018-05-25T03:34:54.427Z,101750.63
2018-05-25T03:37:23.689Z,101742.16
2018-05-25T03:39:52.927Z,101748.41
2018-05-25T03:42:22.393Z,101746.88
2018-05-25T03:44:51.629Z,101743.16
2018-05-25T03:47:20.877Z,101751.39
2018-05-25T03:49:50.049Z,101748.98
2018-05-25T03:52:19.405Z,101747.92
2018-05-25T03:54:48.560Z,101749.91
2018-05-25T03:57:17.974Z,101748.70
2018-05-25T04:04:11.610Z,101750.31
2018-05-25T04:06:40.259Z,101750.33
2018-05-25T04:09:08.902Z,101755.61
2018-05-25T04:11:37.449Z,101757.36
2018-05-25T04:14:05.930Z,101758.34
2018-05-25T04:16:34.562Z,101760.09
2018-05-25T04:19:03.007Z,101754.83
2018-05-25T04:21:31.532Z,101757.94
2018-05-25T04:24:00.202Z,101762.96
2018-05-25T04:26:28.920Z,101756.14
2018-05-25T04:28:57.351Z,101759.17
2018-05-25T04:31:26.285Z,101756.67
2018-05-25T04:33:54.922Z,101758.05
2018-05-25T04:36:23.875Z,101760.65
2018-05-25T04:38:52.491Z,101763.27
2018-05-25T04:41:21.075Z,101761.81
2018-05-25T04:43:49.483Z,101758.03
2018-05-25T04:46:18.039Z,101755.18
2018-05-25T04:48:46.632Z,101764.92
2018-05-25T04:51:15.215Z,101767.22
2018-05-25T04:53:43.791Z,101762.25
2018-05-25T04:56:12.520Z,101759.41
2018-05-25T04:58:41.179Z,101764.49
2018-05-25T05:01:09.666Z,101754.58
2018-05-25T05:03:38.122Z,101755.42
2018-05-25T05:06:06.630Z,101754.27
2018-05-25T05:08:35.048Z,101756.21
2018-05-25T05:11:03.615Z,101757.22
2018-05-25T05:13:32.074Z,101746.22
2018-05-25T05:16:00.782Z,101755.42
2018-05-25T05:18:29.454Z,101757.06
2018-05-25T05:20:58.203Z,101728.45
2018-05-25T05:23:26.684Z,101745.38
2018-05-25T05:25:55.544Z,101748.55
2018-05-25T05:28:24.163Z,101752.74
2018-05-25T05:30:52.638Z,101745.50
2018-05-25T05:33:21.072Z,101749.05
2018-05-25T05:35:49.615Z,101750.51
2018-05-25T05:38:18.207Z,101751.50
2018-05-25T05:40:46.711Z,101753.34
2018-05-25T05:43:15.596Z,101755.39
2018-05-25T05:45:44.178Z,101749.90
2018-05-25T05:48:12.725Z,101750.67
2018-05-25T05:50:41.236Z,101755.41
2018-05-25T05:53:09.670Z,101744.91
2018-05-25T05:55:38.391Z,101744.42
2018-05-25T05:58:06.988Z,101745.50
2018-05-25T06:00:35.487Z,101750.30
2018-05-25T06:05:38.642Z,101751.70
2018-05-25T06:08:07.266Z,101750.00
2018-05-25T06:10:36.087Z,101747.24
2018-05-25T06:13:04.535Z,101747.64
2018-05-25T06:15:33.067Z,101747.34
2018-05-25T06:18:01.692Z,101745.52
2018-05-25T06:20:32.213Z,101747.19
2018-05-25T06:23:01.135Z,101738.37
2018-05-25T06:25:30.087Z,101744.95
2018-05-25T06:28:02.448Z,101746.20
2018-05-25T06:30:32.415Z,101747.78
2018-05-25T06:33:01.677Z,101742.23
2018-05-25T06:35:30.507Z,101743.69
2018-05-25T06:38:05.732Z,101749.74
2018-05-25T06:40:34.211Z,101745.34
2018-05-25T06:43:02.999Z,101739.88
2018-05-25T06:45:33.099Z,101743.23
2018-05-25T06:48:01.739Z,101745.62
2018-05-25T06:50:30.636Z,101745.27
2018-05-25T06:52:59.084Z,101743.11
2018-05-25T06:55:27.572Z,101738.64
2018-05-25T06:57:56.454Z,101743.11
2018-05-25T07:00:25.026Z,101739.63
2018-05-25T07:02:53.794Z,101741.30
2018-05-25T07:05:22.861Z,101741.95
2018-05-25T07:07:52.319Z,101737.97
2018-05-25T07:10:22.186Z,101738.77
2018-05-25T07:12:51.403Z,101736.13
2018-05-25T07:15:20.409Z,101740.95
2018-05-25T07:17:49.358Z,101735.39
2018-05-25T07:20:18.609Z,101738.11
2018-05-25T07:22:47.319Z,101734.29
2018-05-25T07:25:32.441Z,101733.58
2018-05-25T07:28:01.256Z,101734.84
2018-05-25T07:30:30.648Z,101732.08
2018-05-25T07:33:00.036Z,101733.00
2018-05-25T07:35:28.880Z,101730.16
2018-05-25T07:38:01.742Z,101731.87
2018-05-25T07:40:30.649Z,101735.05
2018-05-25T07:42:59.636Z,101734.73
2018-05-25T07:45:28.580Z,101735.27
2018-05-25T07:47:57.195Z,101742.20
2018-05-25T07:53:05.159Z,101732.11
2018-05-25T07:55:33.901Z,101733.69
2018-05-25T07:58:02.529Z,101733.17
2018-05-25T08:00:31.208Z,101736.20
2018-05-25T08:03:00.379Z,101738.94
2018-05-25T08:05:30.223Z,101734.90
2018-05-25T08:07:59.903Z,101740.50
2018-05-25T08:10:28.754Z,101729.80
2018-05-25T08:12:58.205Z,101730.63
2018-05-25T08:15:28.226Z,101733.35
2018-05-25T08:17:57.364Z,101735.25
2018-05-25T08:20:26.244Z,101731.39
2018-05-25T08:22:56.622Z,101730.46
2018-05-25T08:25:28.174Z,101732.70
2018-05-25T08:28:07.363Z,101738.83
2018-05-25T08:30:36.228Z,101746.52
2018-05-25T08:33:05.141Z,101744.53
2018-05-25T08:35:35.296Z,101750.14
2018-05-25T08:38:04.500Z,101735.45
2018-05-25T08:40:33.489Z,101736.88
2018-05-25T08:43:02.294Z,101734.88
2018-05-25T08:45:31.016Z,101733.47
2018-05-25T08:47:59.836Z,101735.45
2018-05-25T08:50:28.948Z,101738.09
2018-05-25T08:52:57.635Z,101735.88
2018-05-25T08:55:26.629Z,101728.39
2018-05-25T08:57:55.468Z,101736.03
2018-05-25T09:00:23.975Z,101729.75
2018-05-25T09:02:52.687Z,101737.94
2018-05-25T09:05:21.420Z,101734.67
2018-05-25T09:07:50.037Z,101733.48
2018-05-25T09:10:18.961Z,101737.52
2018-05-25T09:12:47.712Z,101733.55
2018-05-25T09:15:16.233Z,101725.88
2018-05-25T09:17:44.927Z,101723.37
2018-05-25T09:20:14.032Z,101723.16
2018-05-25T09:22:42.880Z,101720.31
2018-05-25T09:25:11.767Z,101723.03
2018-05-25T09:27:41.476Z,101726.17
2018-05-25T09:30:12.841Z,101721.74
2018-05-25T09:32:43.358Z,101716.58
2018-05-25T09:35:12.116Z,101714.78
2018-05-25T09:37:40.990Z,101723.49
2018-05-25T09:40:09.580Z,101717.63
2018-05-25T09:42:38.232Z,101718.52
2018-05-25T09:45:07.094Z,101709.67
2018-05-25T09:47:35.789Z,101712.45
2018-05-25T09:50:05.317Z,101705.59
2018-05-25T09:52:33.902Z,101700.66
2018-05-25T09:55:02.575Z,101705.23
2018-05-25T09:57:31.535Z,101708.98
2018-05-25T10:00:00.563Z,101706.36
2018-05-25T10:02:29.085Z,101703.20
2018-05-25T10:04:57.553Z,101697.00
2018-05-25T10:07:26.286Z,101701.11
2018-05-25T10:09:55.523Z,101701.55
2018-05-25T10:12:24.236Z,101696.54
2018-05-25T10:14:52.879Z,101697.13
2018-05-25T10:17:22.791Z,101694.18
2018-05-25T10:19:51.324Z,101698.09
2018-05-25T10:22:20.086Z,101690.05
2018-05-25T10:24:49.169Z,101685.41
2018-05-25T10:27:18.270Z,101681.09
2018-05-25T10:29:46.882Z,101690.13
2018-05-25T10:32:15.562Z,101682.42
2018-05-25T10:34:44.063Z,101672.92
2018-05-25T10:37:13.063Z,101680.66
2018-05-25T10:39:41.772Z,101677.82
2018-05-25T10:42:10.283Z,101681.98
2018-05-25T10:44:38.764Z,101676.34
2018-05-25T10:47:08.056Z,101682.14
2018-05-25T10:49:36.531Z,101671.47
2018-05-25T10:52:05.059Z,101665.00
2018-05-25T10:54:33.515Z,101670.16
2018-05-25T10:57:02.163Z,101664.05
2018-05-25T10:59:30.864Z,101672.09
2018-05-25T11:01:59.629Z,101672.11
2018-05-25T11:04:28.223Z,101665.89
2018-05-25T11:06:56.844Z,101665.00
2018-05-25T11:09:25.612Z,101668.13
2018-05-25T11:11:54.173Z,101667.53
2018-05-25T11:14:22.973Z,101656.80
2018-05-25T11:16:51.847Z,101657.31
2018-05-25T11:19:20.455Z,101656.11
2018-05-25T11:21:49.144Z,101645.31
2018-05-25T11:24:17.891Z,101652.95
2018-05-25T11:26:46.928Z,101645.02
2018-05-25T11:29:15.401Z,101644.53
2018-05-25T11:31:44.219Z,101638.23
2018-05-25T11:34:13.771Z,101644.45
2018-05-25T11:36:42.774Z,101639.90
2018-05-25T11:39:12.221Z,101623.83
2018-05-25T11:41:41.203Z,101625.87
2018-05-25T11:44:10.120Z,101630.69
2018-05-25T11:46:39.377Z,101626.19
2018-05-25T11:49:07.942Z,101625.33
2018-05-25T11:51:37.828Z,101632.92
2018-05-25T11:54:06.839Z,101635.12
2018-05-25T11:56:35.538Z,101627.91
2018-05-25T11:59:04.192Z,101613.10
2018-05-25T12:01:33.164Z,101618.44
2018-05-25T12:04:02.768Z,101626.00
2018-05-25T12:06:31.449Z,101620.70
2018-05-25T12:08:59.915Z,101627.72
2018-05-25T12:11:28.706Z,101618.38
2018-05-25T12:13:57.342Z,101613.61
2018-05-25T12:16:26.087Z,101612.10
2018-05-25T12:18:54.542Z,101612.89
2018-05-25T12:21:23.581Z,101611.31
2018-05-25T12:23:52.993Z,101604.84
2018-05-25T12:26:22.819Z,101600.20
2018-05-25T12:28:51.438Z,101604.69
2018-05-25T12:31:20.361Z,101608.98
2018-05-25T12:33:48.960Z,101601.62
2018-05-25T12:36:18.884Z,101601.73
2018-05-25T12:38:47.455Z,101597.03
2018-05-25T12:41:16.093Z,101595.16
2018-05-25T12:43:44.683Z,101600.48
2018-05-25T12:46:13.156Z,101598.25
2018-05-25T12:48:41.713Z,101588.94
2018-05-25T12:51:10.393Z,101589.63
2018-05-25T12:53:40.870Z,101609.52
2018-05-25T12:56:09.802Z,101591.28
2018-05-25T12:58:38.949Z,101589.85
2018-05-25T13:01:07.951Z,101599.28
2018-05-25T13:03:36.416Z,101593.56
2018-05-25T13:06:04.987Z,101600.98
2018-05-25T13:08:33.502Z,101598.34
2018-05-25T13:11:02.290Z,101568.27
2018-05-25T13:13:31.179Z,101564.23
2018-05-25T13:16:06.094Z,101571.19
2018-05-25T13:18:36.095Z,101566.06
2018-05-25T13:21:04.692Z,101566.63
2018-05-25T13:23:33.182Z,101586.56
2018-05-25T13:26:02.472Z,101573.91
2018-05-25T13:28:32.032Z,101570.33
2018-05-25T13:31:00.630Z,101557.19
2018-05-25T13:33:29.323Z,101577.45
2018-05-25T13:35:58.373Z,101560.62
2018-05-25T13:38:26.918Z,101563.69
2018-05-25T13:40:55.474Z,101549.27
2018-05-25T13:43:24.508Z,101557.00
2018-05-25T13:45:53.314Z,101557.33
2018-05-25T13:48:21.819Z,101556.98
2018-05-25T13:50:50.333Z,101559.56
2018-05-25T13:53:19.641Z,101557.61
2018-05-25T13:55:48.279Z,101569.64
2018-05-25T13:58:17.049Z,101571.00
2018-05-25T14:00:45.607Z,101563.00
2018-05-25T14:03:15.852Z,101566.05
2018-05-25T14:05:47.916Z,101567.06
2018-05-25T14:08:17.515Z,101562.45
2018-05-25T14:10:46.048Z,101548.37
2018-05-25T14:13:15.003Z,101552.11
2018-05-25T14:15:43.747Z,101551.12
2018-05-25T14:18:12.314Z,101558.92
2018-05-25T14:20:40.917Z,101549.34
2018-05-25T14:23:10.694Z,101552.91
2018-05-25T14:25:39.253Z,101555.13
2018-05-25T14:28:07.759Z,101547.61
2018-05-25T14:30:36.648Z,101550.12
2018-05-25T14:33:05.880Z,101552.86
2018-05-25T14:35:35.221Z,101547.69
2018-05-25T14:38:03.784Z,101554.13
2018-05-25T14:40:32.277Z,101551.58
2018-05-25T14:43:00.910Z,101546.59
2018-05-25T14:45:29.536Z,101545.00
2018-05-25T14:47:58.281Z,101542.56
2018-05-25T14:50:27.061Z,101541.61
2018-05-25T14:52:55.722Z,101539.37
2018-05-25T14:55:24.397Z,101539.86
2018-05-25T14:57:53.614Z,101540.81
2018-05-25T15:00:23.616Z,101539.69
2018-05-25T15:02:52.311Z,101535.53
2018-05-25T15:05:20.830Z,101527.60
2018-05-25T15:07:49.406Z,101528.61
2018-05-25T15:10:18.775Z,101530.77
2018-05-25T15:12:48.333Z,101531.77
2018-05-25T15:15:17.586Z,101524.96
2018-05-25T15:17:47.326Z,101528.41
2018-05-25T15:20:16.003Z,101521.60
2018-05-25T15:22:44.785Z,101517.70
2018-05-25T15:25:14.919Z,101520.02
2018-05-25T15:27:43.763Z,101521.44
2018-05-25T15:30:13.134Z,101517.05
2018-05-25T15:32:41.919Z,101520.38
2018-05-25T15:35:10.351Z,101521.59
2018-05-25T15:37:38.923Z,101517.28
2018-05-25T15:40:07.752Z,101521.19
2018-05-25T15:42:36.459Z,101520.21
2018-05-25T15:45:04.975Z,101512.52
2018-05-25T15:47:33.537Z,101513.34
2018-05-25T15:50:02.455Z,101524.41
2018-05-25T15:52:31.196Z,101522.84
2018-05-25T15:54:59.660Z,101521.42
2018-05-25T15:57:28.403Z,101530.09
2018-05-25T15:59:57.837Z,101527.11
2018-05-25T16:02:26.518Z,101527.79
2018-05-25T16:04:55.045Z,101531.23
2018-05-25T16:07:23.639Z,101531.48
2018-05-25T16:09:53.175Z,101519.13
2018-05-25T16:12:21.725Z,101519.09
2018-05-25T16:14:50.857Z,101520.71
2018-05-25T16:17:21.603Z,101510.39
2018-05-25T16:19:50.312Z,101516.73
2018-05-25T16:22:25.495Z,101515.82
2018-05-25T16:24:55.667Z,101519.36
2018-05-25T16:27:29.360Z,101514.87
2018-05-25T16:29:59.015Z,101509.38
2018-05-25T16:32:28.836Z,101509.62
2018-05-25T16:35:01.675Z,101499.73
2018-05-25T16:37:31.660Z,101504.25
2018-05-25T16:40:01.242Z,101502.45
2018-05-25T16:42:29.900Z,101501.09
2018-05-25T16:44:59.084Z,101507.67
2018-05-25T16:47:27.932Z,101502.83
2018-05-25T16:49:57.295Z,101503.83
2018-05-25T16:52:26.147Z,101500.91
2018-05-25T16:54:55.171Z,101504.20
2018-05-25T16:57:24.068Z,101504.26
2018-05-25T16:59:53.138Z,101506.02
2018-05-25T17:02:22.122Z,101512.23
2018-05-25T17:04:52.696Z,101507.23
2018-05-25T17:07:24.270Z,101515.20
2018-05-25T17:09:53.258Z,101518.63
2018-05-25T17:12:33.833Z,101515.86
2018-05-25T17:15:05.815Z,101511.45
2018-05-25T17:17:36.714Z,101519.07
2018-05-25T17:20:06.269Z,101512.14
2018-05-25T17:22:35.124Z,101514.11
2018-05-25T17:25:06.690Z,101512.48
2018-05-25T17:27:36.421Z,101521.09
2018-05-25T17:30:05.396Z,101521.29
2018-05-25T17:32:37.803Z,101517.86
2018-05-25T17:35:07.395Z,101522.14
2018-05-25T17:37:36.762Z,101523.88
2018-05-25T17:40:06.359Z,101526.41
2018-05-25T17:42:38.371Z,101526.31
2018-05-25T17:45:08.411Z,101530.31
2018-05-25T17:47:41.275Z,101523.70
2018-05-25T17:50:13.009Z,101542.94
2018-05-25T17:52:42.685Z,101544.42
2018-05-25T17:55:13.576Z,101553.59
2018-05-25T17:57:42.406Z,101547.88
2018-05-25T18:00:14.029Z,101548.92
2018-05-25T18:02:43.161Z,101549.61
2018-05-25T18:05:13.290Z,101547.75
2018-05-25T18:07:42.121Z,101560.30
2018-05-25T18:10:10.752Z,101563.39
2018-05-25T18:12:39.869Z,101568.33
2018-05-25T18:15:08.624Z,101571.38
2018-05-25T18:17:42.178Z,101585.87
2018-05-25T18:20:13.218Z,101587.83
2018-05-25T18:22:45.177Z,101586.15
2018-05-25T18:25:14.372Z,101585.07
2018-05-25T18:27:43.864Z,101589.83
2018-05-25T18:30:14.211Z,101588.69
2018-05-25T18:32:48.346Z,101584.62
2018-05-25T18:35:18.150Z,101594.39
2018-05-25T18:37:47.300Z,101594.66
2018-05-25T18:40:20.541Z,101608.17
2018-05-25T18:42:51.668Z,101608.91
2018-05-25T18:45:21.511Z,101607.94
2018-05-25T18:47:51.016Z,101613.48
2018-05-25T18:50:20.165Z,101617.72
2018-05-25T18:52:50.167Z,101630.20
2018-05-25T18:55:20.957Z,101626.27
2018-05-25T18:57:51.311Z,101633.58
2018-05-25T19:00:30.969Z,101635.94
2018-05-25T19:03:00.527Z,101638.90
2018-05-25T19:05:30.441Z,101636.58
2018-05-25T19:08:00.177Z,101637.40
2018-05-25T19:10:48.993Z,101640.77
2018-05-25T19:13:19.749Z,101638.95
2018-05-25T19:15:50.968Z,101641.68
2018-05-25T19:18:20.750Z,101645.72
2018-05-25T19:20:51.119Z,101645.34
2018-05-25T19:23:20.291Z,101643.92
2018-05-25T19:25:50.457Z,101652.30
2018-05-25T19:28:19.032Z,101654.49
2018-05-25T19:30:48.192Z,101652.82
2018-05-25T19:33:17.021Z,101657.06
2018-05-25T19:35:51.180Z,101662.42
2018-05-25T19:38:23.052Z,101657.88
2018-05-25T19:40:52.252Z,101665.09
2018-05-25T19:43:22.851Z,101668.33
2018-05-25T19:45:53.139Z,101672.56
2018-05-25T19:48:22.220Z,101670.80
2018-05-25T19:50:52.533Z,101678.58
2018-05-25T19:53:21.497Z,101674.61
2018-05-25T19:55:51.367Z,101667.36
2018-05-25T19:58:20.556Z,101673.25
2018-05-25T20:00:49.955Z,101675.69
2018-05-25T20:03:23.375Z,101676.52
2018-05-25T20:05:56.443Z,101675.04
2018-05-25T20:08:26.771Z,101669.58
2018-05-25T20:10:55.846Z,101676.97
2018-05-25T20:13:26.947Z,101677.23
2018-05-25T20:15:55.970Z,101674.65
2018-05-25T20:18:26.225Z,101673.38
2018-05-25T20:20:56.638Z,101672.80
2018-05-25T20:23:27.296Z,101672.35
2018-05-25T20:25:56.839Z,101673.09
2018-05-25T20:28:28.614Z,101672.63
2018-05-25T20:30:59.905Z,101675.98
2018-05-25T20:33:30.190Z,101677.50
2018-05-25T20:35:59.885Z,101669.75
2018-05-25T20:38:31.947Z,101678.38
2018-05-25T20:41:03.310Z,101682.27
2018-05-25T20:43:37.111Z,101686.96
2018-05-25T20:46:09.064Z,101681.88
2018-05-25T20:48:38.157Z,101685.95
2018-05-25T20:51:09.337Z,101691.44
2018-05-25T20:53:41.982Z,101690.29
2018-05-25T20:56:14.755Z,101693.42
2018-05-25T20:58:43.936Z,101690.80
2018-05-25T21:01:14.812Z,101685.05
2018-05-25T21:03:50.891Z,101697.45
2018-05-25T21:06:22.020Z,101702.02
2018-05-25T21:08:50.660Z,101697.80
2018-05-25T21:11:20.232Z,101701.77
2018-05-25T21:13:49.477Z,101703.70
2018-05-25T21:16:19.326Z,101702.59
2018-05-25T21:18:48.546Z,101705.59
2018-05-25T21:21:19.501Z,101704.38
2018-05-25T21:23:48.756Z,101712.34
2018-05-25T21:26:18.079Z,101718.96
2018-05-25T21:28:47.413Z,101708.55
2018-05-25T21:31:16.820Z,101714.16
2018-05-25T21:33:46.299Z,101721.44
2018-05-25T21:36:15.135Z,101723.66
2018-05-25T21:38:44.420Z,101723.06
2018-05-25T21:41:15.363Z,101715.80
2018-05-25T21:43:44.779Z,101720.64
2018-05-25T21:46:14.465Z,101714.27
2018-05-25T21:48:43.807Z,101717.50
2018-05-25T21:51:12.916Z,101712.80
2018-05-25T21:53:43.806Z,101721.63
2018-05-25T21:56:12.855Z,101722.60
2018-05-25T21:58:42.227Z,101717.54
2018-05-25T22:01:10.772Z,101716.61
2018-05-25T22:03:39.901Z,101717.70
2018-05-25T22:06:11.187Z,101717.87
2018-05-25T22:08:40.191Z,101709.08
2018-05-25T22:11:10.215Z,101712.36
2018-05-25T22:13:39.316Z,101714.40
2018-05-25T22:16:08.289Z,101712.28
2018-05-25T22:18:37.102Z,101709.00
2018-05-25T22:21:06.784Z,101711.41
2018-05-25T22:23:36.492Z,101711.82
2018-05-25T22:26:05.074Z,101715.41
2018-05-25T22:28:33.702Z,101717.94
2018-05-25T22:31:02.700Z,101724.05
2018-05-25T22:33:32.469Z,101728.44
2018-05-25T22:36:06.446Z,101726.09
2018-05-25T22:38:36.120Z,101728.02
2018-05-25T22:41:04.638Z,101728.11
2018-05-25T22:43:44.127Z,101729.52
2018-05-25T22:46:25.441Z,101721.02
2018-05-25T22:49:05.432Z,101726.91
2018-05-25T22:51:45.126Z,101720.11
2018-05-25T22:54:52.090Z,101717.59
2018-05-25T22:57:20.739Z,101721.80
2018-05-25T22:59:49.763Z,101730.55
2018-05-25T23:02:18.335Z,101731.81
2018-05-25T23:04:47.107Z,101731.77
2018-05-25T23:07:16.926Z,101736.35
2018-05-25T23:09:45.368Z,101736.08
2018-05-25T23:12:14.843Z,101725.09
2018-05-25T23:14:43.483Z,101733.56
2018-05-25T23:17:12.488Z,101733.63
2018-05-25T23:19:41.867Z,101732.07
2018-05-25T23:22:11.834Z,101728.78
2018-05-25T23:24:40.293Z,101731.95
2018-05-25T23:27:08.827Z,101728.80
2018-05-25T23:29:37.469Z,101728.75
2018-05-25T23:32:06.238Z,101733.63
2018-05-25T23:34:35.459Z,101736.70
2018-05-25T23:37:04.790Z,101734.25
2018-05-25T23:39:33.481Z,101731.69
2018-05-25T23:42:02.043Z,101731.25
2018-05-25T23:44:30.478Z,101727.39
2018-05-25T23:46:58.975Z,101724.20
2018-05-25T23:49:27.403Z,101726.62
2018-05-25T23:51:56.683Z,101731.59
2018-05-25T23:54:25.308Z,101732.03
2018-05-25T23:56:53.863Z,101736.91
2018-05-25T23:59:22.519Z,101733.10
